Time;durP1;ratioP1;P1;durP2;ratioP2;P2;SDS_P1;SDS_P2;PMS_P1;PMS_P2;Temp;Humidity;BMP_temperature;BMP_pressure;BME280_temperature;BME280_humidity;BME280_pressure;Samples;Min_cycle;Max_cycle;Signal;HPM_P1;HPM_P2
2021/03/05 00:00:30;;;;;;;8.23;5.27;;;7.70;97.80;;;;;;5094400;28;20227;-73
2021/03/05 00:02:56;;;;;;;8.47;5.20;;;7.70;98.00;;;;;;5093540;28;20477;-72
2021/03/05 00:05:22;;;;;;;9.93;5.83;;;7.70;98.00;;;;;;5091974;28;20265;-72
2021/03/05 00:07:47;;;;;;;14.43;6.30;;;7.70;97.80;;;;;;5083137;28;20414;-71
2021/03/05 00:10:17;;;;;;;12.70;6.03;;;7.70;97.70;;;;;;5081299;28;20208;-70
2021/03/05 00:12:43;;;;;;;14.57;6.27;;;7.60;97.70;;;;;;5079405;28;20178;-72
2021/03/05 00:15:11;;;;;;;11.60;6.30;;;7.70;97.70;;;;;;5084647;28;20464;-71
2021/03/05 00:17:37;;;;;;;10.43;6.33;;;7.70;97.60;;;;;;5058343;28;20174;-71
2021/03/05 00:20:25;;;;;;;14.00;7.27;;;7.70;97.70;;;;;;5093725;28;20794;-71
2021/03/05 00:22:51;;;;;;;12.17;6.00;;;7.70;97.30;;;;;;5093048;28;20376;-71
2021/03/05 00:25:17;;;;;;;12.70;6.30;;;7.70;97.50;;;;;;5094179;28;20826;-71
2021/03/05 00:27:43;;;;;;;9.20;6.23;;;7.70;97.80;;;;;;5093551;28;20479;-71
2021/03/05 00:30:09;;;;;;;14.07;7.20;;;7.70;97.20;;;;;;5094178;28;20598;-72
2021/03/05 00:32:36;;;;;;;10.00;5.57;;;7.70;97.30;;;;;;5093920;28;20704;-71
2021/03/05 00:35:05;;;;;;;10.90;6.47;;;7.60;97.10;;;;;;5092804;28;20451;-71
2021/03/05 00:37:30;;;;;;;10.27;6.37;;;7.60;97.30;;;;;;5093554;28;20738;-71
2021/03/05 00:39:56;;;;;;;13.20;6.03;;;7.60;97.70;;;;;;5074957;28;20378;-71
2021/03/05 00:42:22;;;;;;;15.07;6.70;;;7.60;97.60;;;;;;5093850;28;20261;-71
2021/03/05 00:44:48;;;;;;;11.07;8.87;;;7.50;97.70;;;;;;5093005;28;20177;-71
2021/03/05 00:47:13;;;;;;;14.03;6.10;;;7.60;97.60;;;;;;5094088;28;20385;-72
2021/03/05 00:49:39;;;;;;;12.20;5.80;;;7.60;97.70;;;;;;5093645;28;20168;-71
2021/03/05 00:52:05;;;;;;;11.50;6.00;;;7.60;97.60;;;;;;5093255;28;20224;-71
2021/03/05 00:54:31;;;;;;;16.67;7.07;;;7.60;97.90;;;;;;5092947;28;20254;-72
2021/03/05 00:56:57;;;;;;;10.80;6.03;;;7.60;98.00;;;;;;5092027;28;20918;-72
2021/03/05 00:59:24;;;;;;;12.67;7.07;;;7.60;98.00;;;;;;5093208;28;20427;-72
2021/03/05 01:01:50;;;;;;;8.40;6.50;;;7.60;98.20;;;;;;5092669;28;20170;-71
2021/03/05 01:04:15;;;;;;;9.03;6.90;;;7.60;98.10;;;;;;5073607;28;20445;-71
2021/03/05 01:06:41;;;;;;;7.97;6.83;;;7.60;98.10;;;;;;5071805;28;20390;-71
2021/03/05 01:09:07;;;;;;;11.90;7.03;;;7.60;98.10;;;;;;5054354;28;20188;-71
2021/03/05 01:11:33;;;;;;;12.07;6.70;;;7.60;98.30;;;;;;5073213;28;20197;-72
2021/03/05 01:13:59;;;;;;;13.37;6.63;;;7.60;98.50;;;;;;5072054;28;20498;-71
2021/03/05 01:16:25;;;;;;;11.47;7.47;;;7.50;98.70;;;;;;5055109;28;20379;-71
2021/03/05 01:18:50;;;;;;;16.53;7.07;;;7.50;98.70;;;;;;5084489;28;20818;-71
2021/03/05 01:21:16;;;;;;;14.80;8.00;;;7.50;98.90;;;;;;5074461;28;20535;-71
2021/03/05 01:23:42;;;;;;;16.40;8.10;;;7.60;99.00;;;;;;5072256;28;20171;-71
2021/03/05 01:26:10;;;;;;;11.40;7.33;;;7.60;99.00;;;;;;5072827;28;20475;-71
2021/03/05 01:28:36;;;;;;;16.23;8.90;;;7.60;99.10;;;;;;5088316;28;20266;-71
2021/03/05 01:31:03;;;;;;;12.50;7.70;;;7.60;99.10;;;;;;5092244;28;20470;-71
2021/03/05 01:33:28;;;;;;;17.90;8.83;;;7.60;99.10;;;;;;5092318;28;20431;-71
2021/03/05 01:35:54;;;;;;;14.60;9.07;;;7.60;99.10;;;;;;5092380;28;20403;-71
2021/03/05 01:38:20;;;;;;;19.73;9.47;;;7.60;99.30;;;;;;5092766;28;20222;-71
2021/03/05 01:40:46;;;;;;;21.60;10.50;;;7.60;99.40;;;;;;5092192;28;20234;-71
2021/03/05 01:43:14;;;;;;;18.10;9.83;;;7.60;99.50;;;;;;5080814;28;20239;-71
2021/03/05 01:45:40;;;;;;;17.30;9.83;;;7.60;99.70;;;;;;5072077;28;20404;-71
2021/03/05 01:48:19;;;;;;;21.70;10.83;;;7.60;99.80;;;;;;5071958;28;20419;-71
2021/03/05 01:51:16;;;;;;;14.27;9.30;;;7.60;99.90;;;;;;5071368;28;20737;-70
2021/03/05 01:53:43;;;;;;;19.93;11.53;;;7.40;99.90;;;;;;5071420;28;20989;-69
2021/03/05 01:56:09;;;;;;;24.13;11.50;;;7.40;99.90;;;;;;5072240;28;20425;-70
2021/03/05 01:58:36;;;;;;;15.37;10.67;;;7.50;99.90;;;;;;5082222;28;20905;-71
2021/03/05 02:01:08;;;;;;;15.90;11.70;;;7.50;99.90;;;;;;5078200;28;20395;-72
2021/03/05 02:03:34;;;;;;;19.07;11.20;;;7.40;99.90;;;;;;5085997;28;20402;-71
2021/03/05 02:06:01;;;;;;;19.13;12.53;;;7.40;99.90;;;;;;5089198;28;20753;-71
2021/03/05 02:08:26;;;;;;;21.63;12.93;;;7.30;99.90;;;;;;5083455;28;20412;-71
2021/03/05 02:10:52;;;;;;;19.80;12.90;;;7.00;99.90;;;;;;5080572;28;20455;-71
2021/03/05 02:13:18;;;;;;;22.70;14.37;;;7.00;99.90;;;;;;5081990;28;20173;-71
2021/03/05 02:15:44;;;;;;;20.63;13.57;;;7.10;99.90;;;;;;5081601;28;20195;-71
2021/03/05 02:18:39;;;;;;;21.52;13.75;;;6.90;99.90;;;;;;5080952;28;20173;-71
2021/03/05 02:21:42;;;;;;;18.70;14.13;;;6.70;99.90;;;;;;5082126;28;20252;-71
2021/03/05 02:24:44;;;;;;;18.05;14.20;;;6.70;99.90;;;;;;5078218;28;20619;-71
2021/03/05 02:27:51;;;;;;;18.20;13.68;;;6.70;99.90;;;;;;5083055;28;20182;-71
2021/03/05 02:31:04;;;;;;;20.23;14.07;;;6.50;99.90;;;;;;5079454;28;20243;-71
2021/03/05 02:33:41;;;;;;;17.13;13.15;;;6.70;99.90;;;;;;5000080;28;20261;-71
2021/03/05 02:36:12;;;;;;;19.55;14.07;;;6.80;99.90;;;;;;5076687;28;20181;-71
2021/03/05 02:38:41;;;;;;;19.00;14.20;;;6.60;99.90;;;;;;5082834;28;20177;-71
2021/03/05 02:41:07;;;;;;;20.37;14.47;;;6.70;99.90;;;;;;5085823;28;20180;-71
2021/03/05 02:43:35;;;;;;;20.77;14.20;;;6.90;99.90;;;;;;5085439;28;20388;-71
2021/03/05 02:46:03;;;;;;;18.50;13.68;;;6.90;99.90;;;;;;5079959;28;20379;-71
2021/03/05 02:48:37;;;;;;;20.65;14.02;;;6.80;99.90;;;;;;5079850;28;20259;-71
2021/03/05 02:51:06;;;;;;;17.80;13.77;;;6.90;99.90;;;;;;5080182;28;20614;-71
2021/03/05 02:53:34;;;;;;;18.95;13.05;;;6.80;99.90;;;;;;5079613;28;20525;-71
2021/03/05 02:56:08;;;;;;;19.75;13.90;;;6.60;99.90;;;;;;5073600;28;20182;-71
2021/03/05 02:58:34;;;;;;;19.92;13.05;;;6.60;99.90;;;;;;5091392;28;20173;-71
2021/03/05 03:01:01;;;;;;;16.30;12.70;;;6.50;99.90;;;;;;5095464;28;20176;-71
2021/03/05 03:03:27;;;;;;;20.40;13.47;;;6.50;99.90;;;;;;5096224;28;20385;-71
2021/03/05 03:05:55;;;;;;;20.35;13.63;;;6.60;99.90;;;;;;5095801;28;20410;-71
2021/03/05 03:08:22;;;;;;;17.55;12.40;;;6.60;99.90;;;;;;5096029;28;20196;-71
2021/03/05 03:10:49;;;;;;;18.55;13.02;;;6.70;99.90;;;;;;5095336;28;20169;-70
2021/03/05 03:13:16;;;;;;;18.00;12.60;;;6.70;99.90;;;;;;5095711;28;20204;-72
2021/03/05 03:15:42;;;;;;;16.90;12.57;;;6.70;99.90;;;;;;5095308;28;20405;-71
2021/03/05 03:18:11;;;;;;;17.97;12.90;;;6.50;99.90;;;;;;5095786;28;20617;-71
2021/03/05 03:20:38;;;;;;;16.20;12.23;;;6.60;99.90;;;;;;5096019;28;20501;-71
2021/03/05 03:23:04;;;;;;;18.27;13.45;;;6.60;99.90;;;;;;5095021;28;20173;-71
2021/03/05 03:25:31;;;;;;;16.90;12.55;;;6.60;99.90;;;;;;5095334;28;20529;-71
2021/03/05 03:27:57;;;;;;;20.25;13.77;;;6.70;99.90;;;;;;5094890;28;20185;-72
2021/03/05 03:30:23;;;;;;;17.33;13.70;;;6.80;99.90;;;;;;5095580;28;20192;-71
2021/03/05 03:32:51;;;;;;;14.53;11.93;;;6.80;99.90;;;;;;5094952;28;20379;-71
2021/03/05 03:35:16;;;;;;;14.87;11.30;;;6.90;99.90;;;;;;5095387;28;21030;-71
2021/03/05 03:37:43;;;;;;;15.57;11.67;;;6.90;99.70;;;;;;5094928;28;20450;-71
2021/03/05 03:40:21;;;;;;;12.67;11.37;;;6.90;99.30;;;;;;5094142;28;20290;-71
2021/03/05 03:42:48;;;;;;;15.57;12.17;;;6.90;99.20;;;;;;5087988;28;20405;-71
2021/03/05 03:45:17;;;;;;;13.97;11.70;;;6.90;99.20;;;;;;5095202;28;20410;-71
2021/03/05 03:47:43;;;;;;;13.60;10.90;;;6.90;98.90;;;;;;5083271;28;20404;-70
2021/03/05 03:50:34;;;;;;;16.80;12.70;;;7.00;98.90;;;;;;5074700;28;20914;-71
2021/03/05 03:53:06;;;;;;;12.83;11.30;;;7.00;98.80;;;;;;5073684;28;20374;-71
2021/03/05 03:55:32;;;;;;;12.90;11.60;;;6.90;98.30;;;;;;5078313;28;20463;-71
2021/03/05 03:57:59;;;;;;;14.17;11.70;;;6.90;98.00;;;;;;5090006;28;20418;-70
2021/03/05 04:00:25;;;;;;;14.50;11.37;;;6.90;97.60;;;;;;5095057;28;20385;-71
2021/03/05 04:02:54;;;;;;;14.77;11.73;;;6.50;98.50;;;;;;5076727;28;20417;-71
2021/03/05 04:05:27;;;;;;;13.60;11.02;;;6.60;98.60;;;;;;5094927;28;20173;-71
2021/03/05 04:07:56;;;;;;;12.43;11.13;;;6.60;98.60;;;;;;5094329;28;20165;-71
2021/03/05 04:10:22;;;;;;;14.70;10.88;;;6.50;98.60;;;;;;5094531;28;20913;-71
2021/03/05 04:12:49;;;;;;;15.70;11.73;;;6.60;98.40;;;;;;5085124;28;20177;-71
2021/03/05 04:15:16;;;;;;;13.20;11.63;;;6.60;98.20;;;;;;5074397;28;20480;-71
2021/03/05 04:17:42;;;;;;;12.03;10.67;;;6.60;98.10;;;;;;5074107;28;20407;-71
2021/03/05 04:20:12;;;;;;;12.67;11.33;;;6.50;98.00;;;;;;5073784;28;20836;-71
2021/03/05 04:22:38;;;;;;;13.57;11.70;;;6.50;98.30;;;;;;5086190;28;20177;-71
2021/03/05 04:25:05;;;;;;;13.33;11.50;;;6.50;97.80;;;;;;5094011;28;20818;-70
2021/03/05 04:27:30;;;;;;;12.33;11.10;;;6.70;97.90;;;;;;5094595;28;20184;-71
2021/03/05 04:29:56;;;;;;;13.83;11.50;;;6.80;97.90;;;;;;5093879;28;20387;-70
2021/03/05 04:32:22;;;;;;;12.47;11.20;;;6.90;97.60;;;;;;5094478;28;20202;-71
2021/03/05 04:34:47;;;;;;;14.97;12.77;;;6.80;97.50;;;;;;5093407;28;20205;-70
2021/03/05 04:37:13;;;;;;;15.03;11.33;;;6.90;97.80;;;;;;5094065;28;20224;-71
2021/03/05 04:39:39;;;;;;;16.50;13.20;;;6.90;97.80;;;;;;5094322;28;20658;-71
2021/03/05 04:42:05;;;;;;;13.77;10.00;;;6.90;97.80;;;;;;5093943;28;20321;-71
2021/03/05 04:44:30;;;;;;;13.13;11.90;;;6.90;97.90;;;;;;5094066;28;20226;-71
2021/03/05 04:46:56;;;;;;;11.07;9.83;;;6.90;97.80;;;;;;5091579;28;20384;-71
2021/03/05 04:49:22;;;;;;;11.47;10.37;;;6.60;97.80;;;;;;5075603;28;20170;-71
2021/03/05 04:51:48;;;;;;;11.63;10.13;;;6.50;97.80;;;;;;5093203;28;20193;-70
2021/03/05 04:54:13;;;;;;;10.13;9.13;;;6.40;98.10;;;;;;5093547;28;20212;-71
2021/03/05 04:56:39;;;;;;;11.43;10.20;;;6.30;98.20;;;;;;5083799;28;20271;-71
2021/03/05 04:59:05;;;;;;;10.80;9.70;;;6.10;98.60;;;;;;5092782;28;20177;-71
2021/03/05 05:01:30;;;;;;;11.17;9.83;;;6.10;99.10;;;;;;5093816;28;20656;-71
2021/03/05 05:03:56;;;;;;;10.00;9.03;;;6.20;99.00;;;;;;5074798;28;20188;-71
2021/03/05 05:06:22;;;;;;;10.67;7.87;;;6.30;98.10;;;;;;5073427;28;20165;-71
2021/03/05 05:08:48;;;;;;;7.93;7.23;;;6.40;96.90;;;;;;5072758;28;20166;-71
2021/03/05 05:11:13;;;;;;;6.30;5.70;;;6.20;95.70;;;;;;5073229;28;20393;-71
2021/03/05 05:13:39;;;;;;;5.63;5.23;;;5.80;96.00;;;;;;5073220;28;20209;-71
2021/03/05 05:16:05;;;;;;;5.60;5.10;;;5.60;95.80;;;;;;5072623;28;20609;-71
2021/03/05 05:18:31;;;;;;;5.60;5.20;;;5.70;95.60;;;;;;5073224;28;20439;-71
2021/03/05 05:20:57;;;;;;;5.90;5.10;;;5.70;95.40;;;;;;5071997;28;20412;-71
2021/03/05 05:23:22;;;;;;;5.30;4.90;;;5.60;95.00;;;;;;5055132;28;20250;-71
2021/03/05 05:25:48;;;;;;;6.97;6.27;;;5.70;95.40;;;;;;5072399;28;20194;-71
2021/03/05 05:28:14;;;;;;;6.40;5.80;;;5.60;95.30;;;;;;5085709;28;20204;-71
2021/03/05 05:30:39;;;;;;;5.73;5.33;;;5.40;95.80;;;;;;5093274;28;20172;-71
2021/03/05 05:33:05;;;;;;;5.80;5.40;;;5.30;96.10;;;;;;5092278;28;20172;-70
2021/03/05 05:35:31;;;;;;;5.30;4.90;;;5.40;96.30;;;;;;5093101;28;20253;-71
2021/03/05 05:37:57;;;;;;;8.17;4.80;;;5.60;96.50;;;;;;5092177;28;20444;-70
2021/03/05 05:40:23;;;;;;;5.80;5.30;;;5.70;96.50;;;;;;5093054;28;20185;-71
2021/03/05 05:42:49;;;;;;;8.13;7.53;;;5.80;96.00;;;;;;5092560;28;20173;-71
2021/03/05 05:45:15;;;;;;;8.35;5.95;;;5.80;95.80;;;;;;5074559;28;20212;-71
2021/03/05 05:47:43;;;;;;;5.00;4.60;;;5.80;95.20;;;;;;5092688;28;20608;-71
2021/03/05 05:50:10;;;;;;;5.50;5.10;;;5.70;95.00;;;;;;5092414;28;20168;-71
2021/03/05 05:52:36;;;;;;;6.70;5.60;;;5.60;94.80;;;;;;5093016;28;20262;-71
2021/03/05 05:55:07;;;;;;;9.10;6.00;;;5.30;94.90;;;;;;5092324;28;20208;-70
2021/03/05 05:57:37;;;;;;;5.13;4.72;;;5.30;95.10;;;;;;5092701;28;20521;-71
2021/03/05 06:00:05;;;;;;;5.95;5.50;;;5.30;95.20;;;;;;5092329;28;20228;-71
2021/03/05 06:02:32;;;;;;;5.82;5.43;;;5.40;95.10;;;;;;5074986;28;20226;-71
2021/03/05 06:04:58;;;;;;;5.72;5.25;;;5.30;95.00;;;;;;5092059;28;20556;-71
2021/03/05 06:07:25;;;;;;;5.68;5.10;;;5.20;94.60;;;;;;5092755;28;20172;-71
2021/03/05 06:09:52;;;;;;;4.95;4.65;;;5.30;94.60;;;;;;5092196;28;20323;-70
2021/03/05 06:12:18;;;;;;;5.40;5.00;;;5.30;94.40;;;;;;5092436;28;20336;-71
2021/03/05 06:14:45;;;;;;;5.10;4.70;;;5.20;94.50;;;;;;5072396;28;20197;-71
2021/03/05 06:17:11;;;;;;;5.40;5.10;;;5.30;94.40;;;;;;5073307;28;20177;-71
2021/03/05 06:19:37;;;;;;;4.68;4.38;;;5.40;94.10;;;;;;5092672;28;20516;-73
2021/03/05 06:22:20;;;;;;;5.25;4.82;;;5.30;93.90;;;;;;5091738;28;20612;-70
2021/03/05 06:24:46;;;;;;;5.40;4.97;;;5.40;93.70;;;;;;5092303;28;20168;-71
2021/03/05 06:27:12;;;;;;;5.87;4.87;;;5.30;93.90;;;;;;5091613;28;20249;-73
2021/03/05 06:29:43;;;;;;;6.55;6.15;;;5.20;94.00;;;;;;5092463;28;20403;-73
2021/03/05 06:32:11;;;;;;;6.40;5.90;;;5.20;94.20;;;;;;5093393;28;20189;-73
2021/03/05 06:34:54;;;;;;;4.78;4.38;;;5.20;94.30;;;;;;5096385;28;20217;-73
2021/03/05 06:37:25;;;;;;;7.65;7.05;;;5.20;93.80;;;;;;5096111;28;20216;-73
2021/03/05 06:40:03;;;;;;;5.63;5.15;;;4.90;93.60;;;;;;5096497;28;20160;-73
2021/03/05 06:42:29;;;;;;;6.50;6.00;;;4.90;94.30;;;;;;5079411;28;20171;-73
2021/03/05 06:44:55;;;;;;;5.27;4.80;;;4.90;94.20;;;;;;5075438;28;20180;-73
2021/03/05 06:47:25;;;;;;;6.93;6.33;;;5.00;94.60;;;;;;5076096;28;20375;-73
2021/03/05 06:49:50;;;;;;;5.97;5.47;;;5.00;94.20;;;;;;5057857;28;20183;-73
2021/03/05 06:52:20;;;;;;;6.90;4.70;;;5.00;94.20;;;;;;5074923;28;20173;-72
2021/03/05 06:54:47;;;;;;;5.82;5.53;;;4.70;93.70;;;;;;5075983;28;20229;-73
2021/03/05 06:57:26;;;;;;;4.43;4.13;;;4.60;94.30;;;;;;5079461;28;20781;-72
2021/03/05 06:59:52;;;;;;;6.60;6.10;;;4.60;94.20;;;;;;5096125;28;20167;-73
2021/03/05 07:02:31;;;;;;;5.60;5.10;;;4.70;94.30;;;;;;5077385;28;20180;-73
2021/03/05 07:04:57;;;;;;;6.88;6.00;;;4.80;94.20;;;;;;5077373;28;20229;-72
2021/03/05 07:07:23;;;;;;;5.30;4.83;;;4.90;93.80;;;;;;5095942;28;20160;-72
2021/03/05 07:09:55;;;;;;;5.20;4.70;;;5.00;93.50;;;;;;5095619;28;20632;-72
2021/03/05 07:12:24;;;;;;;5.93;5.43;;;4.80;93.90;;;;;;5095940;28;20441;-72
2021/03/05 07:15:09;;;;;;;4.90;4.60;;;4.90;94.20;;;;;;5095858;28;20201;-72
2021/03/05 07:17:35;;;;;;;9.30;4.57;;;4.90;94.00;;;;;;5095585;28;20695;-72
2021/03/05 07:20:01;;;;;;;5.30;4.80;;;4.80;94.70;;;;;;5077266;28;20252;-72
2021/03/05 07:22:29;;;;;;;5.30;4.80;;;4.80;94.20;;;;;;5095759;28;20410;-72
2021/03/05 07:24:56;;;;;;;5.63;5.13;;;4.90;93.90;;;;;;5095187;28;20646;-72
2021/03/05 07:27:47;;;;;;;5.97;5.47;;;5.00;94.40;;;;;;5095484;28;20176;-72
2021/03/05 07:30:14;;;;;;;6.28;5.40;;;4.80;94.50;;;;;;5093951;28;20191;-72
2021/03/05 07:32:52;;;;;;;5.53;5.07;;;4.80;94.90;;;;;;5077444;28;20164;-72
2021/03/05 07:35:31;;;;;;;8.10;4.93;;;4.70;94.50;;;;;;5076391;28;20572;-72
2021/03/05 07:38:04;;;;;;;8.13;4.68;;;4.80;95.20;;;;;;5094073;28;20556;-72
2021/03/05 07:40:31;;;;;;;6.40;6.00;;;4.70;94.70;;;;;;5094285;28;20507;-73
2021/03/05 07:42:58;;;;;;;9.52;5.35;;;4.70;95.40;;;;;;5093302;28;20193;-72
2021/03/05 07:45:24;;;;;;;5.22;4.82;;;4.80;95.20;;;;;;5094154;28;20171;-72
2021/03/05 07:47:54;;;;;;;5.15;4.75;;;4.50;95.00;;;;;;5091001;28;20278;-72
2021/03/05 07:50:24;;;;;;;5.03;4.55;;;4.60;95.20;;;;;;5055406;28;20201;-72
2021/03/05 07:52:50;;;;;;;5.07;4.75;;;4.80;95.20;;;;;;5074158;28;20175;-72
2021/03/05 07:55:37;;;;;;;5.63;5.22;;;4.90;94.80;;;;;;5073184;28;20201;-72
2021/03/05 07:58:04;;;;;;;7.25;4.93;;;4.90;95.10;;;;;;5084525;28;20188;-72
2021/03/05 08:00:53;;;;;;;6.63;6.13;;;4.90;95.00;;;;;;5094011;28;20176;-72
2021/03/05 08:03:23;;;;;;;6.72;6.05;;;4.60;95.50;;;;;;5093298;28;20171;-72
2021/03/05 08:05:50;;;;;;;5.22;4.90;;;4.60;95.90;;;;;;5075865;28;20292;-72
2021/03/05 08:08:21;;;;;;;6.10;4.88;;;4.60;95.80;;;;;;5093120;28;20349;-72
2021/03/05 08:10:58;;;;;;;6.68;5.97;;;4.70;95.50;;;;;;5093836;28;20240;-72
2021/03/05 08:13:54;;;;;;;7.50;6.82;;;4.80;95.80;;;;;;5075487;28;20630;-72
2021/03/05 08:16:29;;;;;;;5.95;5.40;;;4.90;95.10;;;;;;5093150;28;20167;-72
2021/03/05 08:19:03;;;;;;;7.63;7.13;;;4.90;95.00;;;;;;5093400;28;20519;-72
2021/03/05 08:21:51;;;;;;;6.18;5.57;;;4.90;95.30;;;;;;5093660;28;20297;-73
2021/03/05 08:24:24;;;;;;;7.22;6.72;;;5.00;95.20;;;;;;5093303;28;20183;-72
2021/03/05 08:27:18;;;;;;;7.05;5.63;;;5.10;95.00;;;;;;5092667;28;20267;-72
2021/03/05 08:29:57;;;;;;;6.85;6.25;;;4.90;95.40;;;;;;5093445;28;20524;-72
2021/03/05 08:32:34;;;;;;;6.72;6.28;;;5.00;96.30;;;;;;5093373;28;20240;-72
2021/03/05 08:35:11;;;;;;;5.90;5.40;;;5.00;95.70;;;;;;5092574;28;20212;-72
2021/03/05 08:37:59;;;;;;;6.67;6.17;;;4.80;95.90;;;;;;5060953;28;589470;-72
2021/03/05 08:40:29;;;;;;;6.95;6.25;;;5.10;95.50;;;;;;5080276;28;20507;-72
2021/03/05 08:43:25;;;;;;;7.38;6.10;;;5.40;94.40;;;;;;5094279;28;20160;-72
2021/03/05 08:46:06;;;;;;;6.65;5.93;;;5.50;94.10;;;;;;5094022;28;20165;-72
2021/03/05 08:48:36;;;;;;;7.72;7.00;;;5.60;94.00;;;;;;5073867;28;20578;-72
2021/03/05 08:51:14;;;;;;;9.07;7.75;;;5.60;94.20;;;;;;5073174;28;20165;-72
2021/03/05 08:53:48;;;;;;;7.25;6.55;;;5.70;94.20;;;;;;5073992;28;20161;-72
2021/03/05 08:56:22;;;;;;;8.43;7.63;;;5.90;93.90;;;;;;5072311;28;20179;-72
2021/03/05 08:59:05;;;;;;;8.25;7.22;;;5.90;92.60;;;;;;5091087;28;20169;-72
2021/03/05 09:01:40;;;;;;;6.80;6.20;;;5.90;92.10;;;;;;5093703;28;20172;-73
2021/03/05 09:04:11;;;;;;;8.15;6.13;;;5.90;92.60;;;;;;5093434;28;20237;-72
2021/03/05 09:06:53;;;;;;;10.32;6.28;;;6.10;93.10;;;;;;5094100;28;20265;-72
2021/03/05 09:09:23;;;;;;;10.13;6.95;;;6.10;92.00;;;;;;5092737;28;20635;-72
2021/03/05 09:12:13;;;;;;;7.65;6.95;;;5.90;93.00;;;;;;5075211;28;20540;-72
2021/03/05 09:14:40;;;;;;;9.07;7.30;;;5.70;93.50;;;;;;5093481;28;20240;-73
2021/03/05 09:17:07;;;;;;;7.88;7.07;;;5.70;93.70;;;;;;5092902;28;20677;-72
2021/03/05 09:19:40;;;;;;;6.70;6.20;;;5.90;93.30;;;;;;5093486;28;20202;-72
2021/03/05 09:22:17;;;;;;;6.97;6.43;;;6.00;93.40;;;;;;5092768;28;20165;-72
2021/03/05 09:25:09;;;;;;;7.10;6.50;;;6.20;93.10;;;;;;5093647;28;20164;-72
2021/03/05 09:27:40;;;;;;;7.07;6.47;;;6.10;93.30;;;;;;5092923;28;20264;-72
2021/03/05 09:30:26;;;;;;;7.78;7.07;;;6.10;92.70;;;;;;5092354;28;20168;-72
2021/03/05 09:32:57;;;;;;;7.82;6.80;;;6.20;93.10;;;;;;5093284;28;20178;-72
2021/03/05 09:35:28;;;;;;;8.70;7.45;;;6.20;92.90;;;;;;5091188;28;20200;-72
2021/03/05 09:37:54;;;;;;;9.48;7.00;;;6.10;93.40;;;;;;5081975;28;20220;-72
2021/03/05 09:40:21;;;;;;;9.40;8.50;;;6.30;92.70;;;;;;5090335;28;20184;-72
2021/03/05 09:42:48;;;;;;;8.55;7.70;;;6.40;93.00;;;;;;5093093;28;20259;-72
2021/03/05 09:45:34;;;;;;;9.15;8.35;;;6.50;92.60;;;;;;5086651;28;20181;-72
2021/03/05 09:48:00;;;;;;;10.50;9.43;;;6.30;92.40;;;;;;5065515;28;20172;-72
2021/03/05 09:50:26;;;;;;;7.10;6.40;;;6.40;92.50;;;;;;5072648;28;20513;-72
2021/03/05 09:52:53;;;;;;;12.27;7.93;;;6.50;92.60;;;;;;5072681;28;20751;-72
2021/03/05 09:55:27;;;;;;;12.07;9.88;;;6.60;92.80;;;;;;5082525;28;20246;-73
2021/03/05 09:58:11;;;;;;;10.57;9.15;;;6.70;92.40;;;;;;5092846;28;20178;-72
2021/03/05 10:00:38;;;;;;;12.33;9.93;;;6.70;91.50;;;;;;5092941;28;20169;-72
2021/03/05 10:03:06;;;;;;;10.80;8.10;;;6.90;91.20;;;;;;5092069;28;20385;-72
2021/03/05 10:05:33;;;;;;;9.27;7.87;;;7.00;92.00;;;;;;5092707;28;20884;-72
2021/03/05 10:07:59;;;;;;;8.13;7.32;;;7.10;92.00;;;;;;5091864;28;20955;-72
2021/03/05 10:10:25;;;;;;;9.03;8.23;;;7.10;92.20;;;;;;5092703;28;20174;-72
2021/03/05 10:12:54;;;;;;;9.50;8.60;;;7.10;92.10;;;;;;5091746;28;20178;-72
2021/03/05 10:15:20;;;;;;;9.30;8.40;;;7.20;92.50;;;;;;5091681;28;20855;-72
2021/03/05 10:17:46;;;;;;;8.90;7.97;;;7.20;91.70;;;;;;5092506;28;20175;-72
2021/03/05 10:20:13;;;;;;;9.10;8.30;;;7.20;91.50;;;;;;5092027;28;20381;-72
2021/03/05 10:22:39;;;;;;;9.63;8.57;;;7.30;91.00;;;;;;5092671;28;20427;-72
2021/03/05 10:25:05;;;;;;;10.73;9.70;;;7.10;91.20;;;;;;5073892;28;20381;-72
2021/03/05 10:27:44;;;;;;;9.60;8.60;;;7.00;91.20;;;;;;5092371;28;20446;-72
2021/03/05 10:30:10;;;;;;;9.53;7.80;;;7.10;90.80;;;;;;5091584;28;20954;-72
2021/03/05 10:32:42;;;;;;;11.17;9.47;;;7.10;91.20;;;;;;5092478;28;20412;-72
2021/03/05 10:35:15;;;;;;;10.10;9.03;;;7.20;91.10;;;;;;5091725;28;20494;-71
2021/03/05 10:37:42;;;;;;;9.50;8.27;;;7.10;90.40;;;;;;5091922;28;20482;-72
2021/03/05 10:40:11;;;;;;;10.90;9.90;;;7.10;90.20;;;;;;5091961;28;20393;-71
2021/03/05 10:42:37;;;;;;;10.20;9.30;;;7.10;89.80;;;;;;5092017;28;20390;-71
2021/03/05 10:45:04;;;;;;;9.40;8.20;;;7.20;89.80;;;;;;5091789;28;20528;-70
2021/03/05 10:47:32;;;;;;;9.30;8.40;;;7.20;89.40;;;;;;5092394;28;20521;-70
2021/03/05 10:49:57;;;;;;;9.10;8.10;;;7.30;90.10;;;;;;5091963;28;20444;-71
2021/03/05 10:52:23;;;;;;;7.43;6.83;;;7.60;89.10;;;;;;5092310;28;20446;-71
2021/03/05 10:54:50;;;;;;;8.57;7.60;;;8.00;87.50;;;;;;5092014;28;20300;-71
2021/03/05 10:57:17;;;;;;;6.90;6.33;;;8.40;88.70;;;;;;5091505;28;20422;-71
2021/03/05 10:59:46;;;;;;;7.10;6.50;;;8.90;85.40;;;;;;5092247;28;20406;-71
2021/03/05 11:02:12;;;;;;;8.77;7.77;;;9.30;82.50;;;;;;5091598;28;20384;-71
2021/03/05 11:04:39;;;;;;;8.20;7.43;;;8.90;80.10;;;;;;5092385;28;20399;-70
2021/03/05 11:07:06;;;;;;;6.73;6.07;;;9.30;78.30;;;;;;5091468;28;20470;-70
2021/03/05 11:09:32;;;;;;;8.63;7.83;;;9.70;79.30;;;;;;5091937;28;20939;-70
2021/03/05 11:11:59;;;;;;;6.93;6.27;;;10.00;77.10;;;;;;5091824;28;20405;-70
2021/03/05 11:14:28;;;;;;;7.00;6.30;;;10.00;72.70;;;;;;5091428;28;20541;-72
2021/03/05 11:16:54;;;;;;;8.00;7.20;;;10.00;73.40;;;;;;5091707;28;20397;-73
2021/03/05 11:19:21;;;;;;;7.23;6.63;;;9.90;74.30;;;;;;5094375;28;20403;-71
2021/03/05 11:21:47;;;;;;;7.27;5.60;;;10.00;74.90;;;;;;5095837;28;20505;-71
2021/03/05 11:24:13;;;;;;;7.60;6.77;;;9.80;75.30;;;;;;5094877;28;20438;-70
2021/03/05 11:26:40;;;;;;;6.50;5.90;;;9.80;73.10;;;;;;5095991;28;20717;-71
2021/03/05 11:29:07;;;;;;;7.17;5.90;;;9.80;71.20;;;;;;5094333;28;20650;-70
2021/03/05 11:31:33;;;;;;;5.20;4.70;;;9.70;71.60;;;;;;5095560;28;20395;-70
2021/03/05 11:33:59;;;;;;;5.40;4.90;;;9.90;70.80;;;;;;5094893;28;20905;-71
2021/03/05 11:36:25;;;;;;;5.23;4.70;;;10.20;68.80;;;;;;5095478;28;20508;-70
2021/03/05 11:38:52;;;;;;;5.63;5.13;;;10.20;68.80;;;;;;5095612;28;20867;-70
2021/03/05 11:41:18;;;;;;;6.40;5.70;;;10.60;69.90;;;;;;5094722;28;20501;-71
2021/03/05 11:43:47;;;;;;;5.80;5.40;;;10.90;69.20;;;;;;5095551;28;20399;-70
2021/03/05 11:46:14;;;;;;;5.73;5.33;;;11.30;67.30;;;;;;5094730;28;20411;-70
2021/03/05 11:48:39;;;;;;;7.80;5.33;;;11.40;65.60;;;;;;5085294;28;20435;-70
2021/03/05 11:51:06;;;;;;;6.00;5.60;;;11.40;62.90;;;;;;5074109;28;20438;-70
2021/03/05 11:53:32;;;;;;;5.20;4.80;;;11.50;63.20;;;;;;5074689;28;20413;-71
2021/03/05 11:55:57;;;;;;;4.37;4.03;;;11.40;62.40;;;;;;5074582;28;20425;-71
2021/03/05 11:58:23;;;;;;;3.80;3.50;;;11.40;60.90;;;;;;5088910;28;20178;-70
2021/03/05 12:00:49;;;;;;;3.97;3.67;;;11.50;61.50;;;;;;5094946;28;20172;-71
2021/03/05 12:03:15;;;;;;;4.57;3.77;;;11.60;60.00;;;;;;5094313;28;20186;-71
2021/03/05 12:05:41;;;;;;;5.30;4.90;;;11.80;59.70;;;;;;5094995;28;20406;-71
2021/03/05 12:08:07;;;;;;;4.90;4.50;;;11.70;59.20;;;;;;5094329;28;20410;-70
2021/03/05 12:10:33;;;;;;;4.60;4.30;;;11.70;61.10;;;;;;5095004;28;20200;-71
2021/03/05 12:12:58;;;;;;;5.73;4.43;;;11.20;59.20;;;;;;5094208;28;20925;-70
2021/03/05 12:15:24;;;;;;;4.50;3.90;;;11.20;58.90;;;;;;5094614;28;20229;-71
2021/03/05 12:17:50;;;;;;;5.83;5.53;;;11.10;59.30;;;;;;5094702;28;20167;-71
2021/03/05 12:20:16;;;;;;;7.23;3.90;;;11.00;60.00;;;;;;5094096;28;20175;-70
2021/03/05 12:22:42;;;;;;;4.33;3.93;;;10.90;57.80;;;;;;5076759;28;20168;-70
2021/03/05 12:25:08;;;;;;;4.13;3.73;;;10.70;58.00;;;;;;5093893;28;20411;-71
2021/03/05 12:27:34;;;;;;;4.73;4.27;;;10.50;59.00;;;;;;5094399;28;20519;-71
2021/03/05 12:30:00;;;;;;;4.80;4.43;;;10.40;59.10;;;;;;5092720;28;20415;-70
2021/03/05 12:32:26;;;;;;;4.80;4.50;;;10.20;61.10;;;;;;5076432;28;20872;-71
2021/03/05 12:34:52;;;;;;;4.00;3.70;;;10.20;61.10;;;;;;5094420;28;20544;-71
2021/03/05 12:37:19;;;;;;;3.83;3.53;;;10.00;59.50;;;;;;5093582;28;20450;-70
2021/03/05 12:39:44;;;;;;;4.50;3.50;;;9.50;61.80;;;;;;5094324;28;20421;-71
2021/03/05 12:42:11;;;;;;;3.90;3.50;;;9.10;63.00;;;;;;5086922;28;20407;-69
2021/03/05 12:44:37;;;;;;;3.70;3.40;;;8.80;62.80;;;;;;5075449;28;20192;-69
2021/03/05 12:47:03;;;;;;;4.03;3.00;;;8.80;64.20;;;;;;5093001;28;20486;-70
2021/03/05 12:49:28;;;;;;;3.87;3.57;;;9.00;63.50;;;;;;5075363;28;20231;-68
2021/03/05 12:51:54;;;;;;;6.53;3.50;;;9.30;60.70;;;;;;5073846;28;20407;-70
2021/03/05 12:54:20;;;;;;;4.47;3.40;;;9.50;61.60;;;;;;5073235;28;20203;-70
2021/03/05 12:56:46;;;;;;;4.50;4.20;;;9.50;61.30;;;;;;5073572;28;20185;-70
2021/03/05 12:59:12;;;;;;;3.87;3.50;;;9.70;59.20;;;;;;5092825;28;20180;-71
2021/03/05 13:01:37;;;;;;;3.50;3.27;;;9.60;60.20;;;;;;5093671;28;20535;-70